sensor_id;sensor_type;location;lat;lon;timestamp;temperature;humidity
52879;DHT22;38747;53.140;6.498;2023-08-07T00:01:47;15.40;99.90
52879;DHT22;38747;53.140;6.498;2023-08-07T00:04:13;15.30;99.90
52879;DHT22;38747;53.140;6.498;2023-08-07T00:06:39;15.40;99.90
52879;DHT22;38747;53.140;6.498;2023-08-07T00:09:04;15.40;99.90
52879;DHT22;38747;53.140;6.498;2023-08-07T00:11:30;15.40;99.90
52879;DHT22;38747;53.140;6.498;2023-08-07T00:13:58;15.30;99.90
52879;DHT22;38747;53.140;6.498;2023-08-07T00:16:23;15.30;99.90
52879;DHT22;38747;53.140;6.498;2023-08-07T00:18:49;15.30;99.90
52879;DHT22;38747;53.140;6.498;2023-08-07T00:21:15;15.20;99.90
52879;DHT22;38747;53.140;6.498;2023-08-07T00:23:40;15.20;99.90
52879;DHT22;38747;53.140;6.498;2023-08-07T00:26:06;15.10;99.90
52879;DHT22;38747;53.140;6.498;2023-08-07T00:28:31;15.10;99.90
52879;DHT22;38747;53.140;6.498;2023-08-07T00:30:58;15.10;99.90
52879;DHT22;38747;53.140;6.498;2023-08-07T00:33:24;15.00;99.90
52879;DHT22;38747;53.140;6.498;2023-08-07T00:35:49;15.00;99.90
52879;DHT22;38747;53.140;6.498;2023-08-07T00:38:15;15.00;99.90
52879;DHT22;38747;53.140;6.498;2023-08-07T00:40:41;14.90;99.90
52879;DHT22;38747;53.140;6.498;2023-08-07T00:43:07;14.90;99.90
52879;DHT22;38747;53.140;6.498;2023-08-07T00:45:36;14.80;99.90
52879;DHT22;38747;53.140;6.498;2023-08-07T00:48:04;14.80;99.90
52879;DHT22;38747;53.140;6.498;2023-08-07T00:50:29;14.80;99.90
52879;DHT22;38747;53.140;6.498;2023-08-07T00:52:55;14.70;99.90
52879;DHT22;38747;53.140;6.498;2023-08-07T00:55:21;14.70;99.90
52879;DHT22;38747;53.140;6.498;2023-08-07T00:57:47;14.60;99.90
52879;DHT22;38747;53.140;6.498;2023-08-07T01:00:14;14.60;99.90
52879;DHT22;38747;53.140;6.498;2023-08-07T01:02:41;14.60;99.90
52879;DHT22;38747;53.140;6.498;2023-08-07T01:05:07;14.60;99.90
52879;DHT22;38747;53.140;6.498;2023-08-07T01:07:33;14.50;99.90
52879;DHT22;38747;53.140;6.498;2023-08-07T01:09:58;14.50;99.90
52879;DHT22;38747;53.140;6.498;2023-08-07T01:12:35;14.50;99.90
52879;DHT22;38747;53.140;6.498;2023-08-07T01:15:22;14.50;99.90
52879;DHT22;38747;53.140;6.498;2023-08-07T01:17:52;14.40;99.90
52879;DHT22;38747;53.140;6.498;2023-08-07T01:20:18;14.40;99.90
52879;DHT22;38747;53.140;6.498;2023-08-07T01:22:44;14.40;99.90
52879;DHT22;38747;53.140;6.498;2023-08-07T01:25:09;14.40;99.90
52879;DHT22;38747;53.140;6.498;2023-08-07T01:27:36;14.40;99.90
52879;DHT22;38747;53.140;6.498;2023-08-07T01:30:11;14.40;99.90
52879;DHT22;38747;53.140;6.498;2023-08-07T01:35:14;14.30;99.90
52879;DHT22;38747;53.140;6.498;2023-08-07T01:37:42;14.30;99.90
52879;DHT22;38747;53.140;6.498;2023-08-07T01:40:09;14.30;99.90
52879;DHT22;38747;53.140;6.498;2023-08-07T01:42:36;14.30;99.90
52879;DHT22;38747;53.140;6.498;2023-08-07T01:45:02;14.30;99.90
52879;DHT22;38747;53.140;6.498;2023-08-07T01:47:27;14.30;99.90
52879;DHT22;38747;53.140;6.498;2023-08-07T01:49:53;14.30;99.90
52879;DHT22;38747;53.140;6.498;2023-08-07T01:52:20;14.20;99.90
52879;DHT22;38747;53.140;6.498;2023-08-07T01:54:46;14.20;99.90
52879;DHT22;38747;53.140;6.498;2023-08-07T01:57:11;14.10;99.90
52879;DHT22;38747;53.140;6.498;2023-08-07T01:59:37;14.10;99.90
52879;DHT22;38747;53.140;6.498;2023-08-07T02:02:03;14.10;99.90
52879;DHT22;38747;53.140;6.498;2023-08-07T02:04:29;14.00;99.90
52879;DHT22;38747;53.140;6.498;2023-08-07T02:06:55;14.10;99.90
52879;DHT22;38747;53.140;6.498;2023-08-07T02:09:20;14.00;99.90
52879;DHT22;38747;53.140;6.498;2023-08-07T02:11:46;14.00;99.90
52879;DHT22;38747;53.140;6.498;2023-08-07T02:14:12;14.00;99.90
52879;DHT22;38747;53.140;6.498;2023-08-07T02:16:37;14.00;99.90
52879;DHT22;38747;53.140;6.498;2023-08-07T02:19:03;14.10;99.90
52879;DHT22;38747;53.140;6.498;2023-08-07T02:21:29;14.00;99.90
52879;DHT22;38747;53.140;6.498;2023-08-07T02:23:54;14.00;99.90
52879;DHT22;38747;53.140;6.498;2023-08-07T02:26:20;14.00;99.90
52879;DHT22;38747;53.140;6.498;2023-08-07T02:28:45;14.00;99.90
52879;DHT22;38747;53.140;6.498;2023-08-07T02:31:11;14.00;99.90
52879;DHT22;38747;53.140;6.498;2023-08-07T02:33:37;14.00;99.90
52879;DHT22;38747;53.140;6.498;2023-08-07T02:36:02;14.00;99.90
52879;DHT22;38747;53.140;6.498;2023-08-07T02:38:28;14.00;99.90
52879;DHT22;38747;53.140;6.498;2023-08-07T02:40:53;14.00;99.90
52879;DHT22;38747;53.140;6.498;2023-08-07T02:43:19;14.00;99.90
52879;DHT22;38747;53.140;6.498;2023-08-07T02:45:45;14.00;99.90
52879;DHT22;38747;53.140;6.498;2023-08-07T02:48:10;14.00;99.90
52879;DHT22;38747;53.140;6.498;2023-08-07T02:50:36;13.90;99.90
52879;DHT22;38747;53.140;6.498;2023-08-07T02:53:02;14.00;99.90
52879;DHT22;38747;53.140;6.498;2023-08-07T02:55:28;14.10;99.90
52879;DHT22;38747;53.140;6.498;2023-08-07T02:57:53;14.20;99.90
52879;DHT22;38747;53.140;6.498;2023-08-07T03:00:19;14.20;99.90
52879;DHT22;38747;53.140;6.498;2023-08-07T03:02:45;14.20;99.90
52879;DHT22;38747;53.140;6.498;2023-08-07T03:05:11;14.30;99.90
52879;DHT22;38747;53.140;6.498;2023-08-07T03:07:36;14.30;99.90
52879;DHT22;38747;53.140;6.498;2023-08-07T03:10:02;14.40;99.90
52879;DHT22;38747;53.140;6.498;2023-08-07T03:12:29;14.40;99.90
52879;DHT22;38747;53.140;6.498;2023-08-07T03:14:55;14.40;99.90
52879;DHT22;38747;53.140;6.498;2023-08-07T03:17:21;14.40;99.90
52879;DHT22;38747;53.140;6.498;2023-08-07T03:19:46;14.40;99.90
52879;DHT22;38747;53.140;6.498;2023-08-07T03:22:12;14.40;99.90
52879;DHT22;38747;53.140;6.498;2023-08-07T03:24:38;14.40;99.90
52879;DHT22;38747;53.140;6.498;2023-08-07T03:27:04;14.40;99.90
52879;DHT22;38747;53.140;6.498;2023-08-07T03:29:30;14.40;99.90
52879;DHT22;38747;53.140;6.498;2023-08-07T03:31:55;14.30;99.90
52879;DHT22;38747;53.140;6.498;2023-08-07T03:34:21;14.30;99.90
52879;DHT22;38747;53.140;6.498;2023-08-07T03:36:47;14.30;99.90
52879;DHT22;38747;53.140;6.498;2023-08-07T03:39:13;14.30;99.90
52879;DHT22;38747;53.140;6.498;2023-08-07T03:41:39;14.30;99.90
52879;DHT22;38747;53.140;6.498;2023-08-07T03:44:05;14.30;99.90
52879;DHT22;38747;53.140;6.498;2023-08-07T03:46:31;14.30;99.90
52879;DHT22;38747;53.140;6.498;2023-08-07T03:48:56;14.40;99.90
52879;DHT22;38747;53.140;6.498;2023-08-07T03:51:22;14.40;99.90
52879;DHT22;38747;53.140;6.498;2023-08-07T03:53:47;14.40;99.90
52879;DHT22;38747;53.140;6.498;2023-08-07T03:56:13;14.40;99.90
52879;DHT22;38747;53.140;6.498;2023-08-07T03:58:39;14.50;99.90
52879;DHT22;38747;53.140;6.498;2023-08-07T04:01:04;14.50;99.90
52879;DHT22;38747;53.140;6.498;2023-08-07T04:03:30;14.60;99.90
52879;DHT22;38747;53.140;6.498;2023-08-07T04:05:56;14.60;99.90
52879;DHT22;38747;53.140;6.498;2023-08-07T04:08:22;14.60;99.90
52879;DHT22;38747;53.140;6.498;2023-08-07T04:11:04;14.60;99.90
52879;DHT22;38747;53.140;6.498;2023-08-07T04:13:31;14.60;99.90
52879;DHT22;38747;53.140;6.498;2023-08-07T04:15:57;14.60;99.90
52879;DHT22;38747;53.140;6.498;2023-08-07T04:18:23;14.60;99.90
52879;DHT22;38747;53.140;6.498;2023-08-07T04:20:58;14.70;99.90
52879;DHT22;38747;53.140;6.498;2023-08-07T04:23:23;14.60;99.90
52879;DHT22;38747;53.140;6.498;2023-08-07T04:25:50;14.60;99.90
52879;DHT22;38747;53.140;6.498;2023-08-07T04:28:16;14.60;99.90
52879;DHT22;38747;53.140;6.498;2023-08-07T04:30:43;14.60;99.90
52879;DHT22;38747;53.140;6.498;2023-08-07T04:33:09;14.60;99.90
52879;DHT22;38747;53.140;6.498;2023-08-07T04:35:35;14.70;99.90
52879;DHT22;38747;53.140;6.498;2023-08-07T04:38:01;14.70;99.90
52879;DHT22;38747;53.140;6.498;2023-08-07T04:40:28;14.70;99.90
52879;DHT22;38747;53.140;6.498;2023-08-07T04:42:54;14.70;99.90
52879;DHT22;38747;53.140;6.498;2023-08-07T04:45:20;14.80;99.90
52879;DHT22;38747;53.140;6.498;2023-08-07T04:47:45;14.80;99.90
52879;DHT22;38747;53.140;6.498;2023-08-07T04:50:11;14.80;99.90
52879;DHT22;38747;53.140;6.498;2023-08-07T04:52:37;14.80;99.90
52879;DHT22;38747;53.140;6.498;2023-08-07T04:55:02;14.80;99.90
52879;DHT22;38747;53.140;6.498;2023-08-07T04:57:28;14.70;99.90
52879;DHT22;38747;53.140;6.498;2023-08-07T04:59:54;14.60;99.90
52879;DHT22;38747;53.140;6.498;2023-08-07T05:02:20;14.50;99.90
52879;DHT22;38747;53.140;6.498;2023-08-07T05:04:45;14.50;99.90
52879;DHT22;38747;53.140;6.498;2023-08-07T05:07:11;14.50;99.90
52879;DHT22;38747;53.140;6.498;2023-08-07T05:09:38;14.50;99.90
52879;DHT22;38747;53.140;6.498;2023-08-07T05:12:04;14.50;99.90
52879;DHT22;38747;53.140;6.498;2023-08-07T05:14:30;14.50;99.90
52879;DHT22;38747;53.140;6.498;2023-08-07T05:16:56;14.50;99.90
52879;DHT22;38747;53.140;6.498;2023-08-07T05:19:22;14.60;99.90
52879;DHT22;38747;53.140;6.498;2023-08-07T05:21:48;14.60;99.90
52879;DHT22;38747;53.140;6.498;2023-08-07T05:24:19;14.60;99.90
52879;DHT22;38747;53.140;6.498;2023-08-07T05:26:45;14.60;99.90
52879;DHT22;38747;53.140;6.498;2023-08-07T05:29:11;14.70;99.90
52879;DHT22;38747;53.140;6.498;2023-08-07T05:31:36;14.70;99.90
52879;DHT22;38747;53.140;6.498;2023-08-07T05:34:02;14.70;99.90
52879;DHT22;38747;53.140;6.498;2023-08-07T05:36:28;14.70;99.90
52879;DHT22;38747;53.140;6.498;2023-08-07T05:38:55;14.70;99.90
52879;DHT22;38747;53.140;6.498;2023-08-07T05:41:21;14.70;99.90
52879;DHT22;38747;53.140;6.498;2023-08-07T05:43:46;14.80;99.90
52879;DHT22;38747;53.140;6.498;2023-08-07T05:46:12;14.80;99.90
52879;DHT22;38747;53.140;6.498;2023-08-07T05:48:38;14.80;99.90
52879;DHT22;38747;53.140;6.498;2023-08-07T05:51:03;14.90;99.90
52879;DHT22;38747;53.140;6.498;2023-08-07T05:53:29;14.90;99.90
52879;DHT22;38747;53.140;6.498;2023-08-07T05:55:55;14.90;99.90
52879;DHT22;38747;53.140;6.498;2023-08-07T05:58:21;14.90;99.90
52879;DHT22;38747;53.140;6.498;2023-08-07T06:00:47;14.90;99.90
52879;DHT22;38747;53.140;6.498;2023-08-07T06:03:12;14.80;99.90
52879;DHT22;38747;53.140;6.498;2023-08-07T06:05:38;14.80;99.90
52879;DHT22;38747;53.140;6.498;2023-08-07T06:08:04;14.70;99.90
52879;DHT22;38747;53.140;6.498;2023-08-07T06:10:30;14.60;99.90
52879;DHT22;38747;53.140;6.498;2023-08-07T06:12:55;14.60;99.90
52879;DHT22;38747;53.140;6.498;2023-08-07T06:15:21;14.60;99.90
52879;DHT22;38747;53.140;6.498;2023-08-07T06:17:47;14.60;99.90
52879;DHT22;38747;53.140;6.498;2023-08-07T06:20:12;14.70;99.90
52879;DHT22;38747;53.140;6.498;2023-08-07T06:22:40;14.70;99.90
52879;DHT22;38747;53.140;6.498;2023-08-07T06:25:06;14.70;99.90
52879;DHT22;38747;53.140;6.498;2023-08-07T06:27:32;14.70;99.90
52879;DHT22;38747;53.140;6.498;2023-08-07T06:29:58;14.70;99.90
52879;DHT22;38747;53.140;6.498;2023-08-07T06:32:25;14.70;99.90
52879;DHT22;38747;53.140;6.498;2023-08-07T06:34:50;14.70;99.90
52879;DHT22;38747;53.140;6.498;2023-08-07T06:37:16;14.80;99.90
52879;DHT22;38747;53.140;6.498;2023-08-07T06:39:42;14.80;99.90
52879;DHT22;38747;53.140;6.498;2023-08-07T06:42:08;14.80;99.90
52879;DHT22;38747;53.140;6.498;2023-08-07T06:44:33;14.90;99.90
52879;DHT22;38747;53.140;6.498;2023-08-07T06:46:59;14.90;99.90
52879;DHT22;38747;53.140;6.498;2023-08-07T06:49:24;14.90;99.90
52879;DHT22;38747;53.140;6.498;2023-08-07T06:51:50;15.00;99.90
52879;DHT22;38747;53.140;6.498;2023-08-07T06:54:16;15.00;99.90
52879;DHT22;38747;53.140;6.498;2023-08-07T06:56:41;15.00;99.90
52879;DHT22;38747;53.140;6.498;2023-08-07T06:59:08;15.10;99.90
52879;DHT22;38747;53.140;6.498;2023-08-07T07:01:34;15.10;99.90
52879;DHT22;38747;53.140;6.498;2023-08-07T07:04:00;15.10;99.90
52879;DHT22;38747;53.140;6.498;2023-08-07T07:06:25;15.20;99.90
52879;DHT22;38747;53.140;6.498;2023-08-07T07:08:51;15.30;99.90
52879;DHT22;38747;53.140;6.498;2023-08-07T07:11:22;15.30;99.90
52879;DHT22;38747;53.140;6.498;2023-08-07T07:13:50;15.30;99.90
52879;DHT22;38747;53.140;6.498;2023-08-07T07:16:20;15.30;99.90
52879;DHT22;38747;53.140;6.498;2023-08-07T07:18:50;15.30;99.90
52879;DHT22;38747;53.140;6.498;2023-08-07T07:21:16;15.30;99.90
52879;DHT22;38747;53.140;6.498;2023-08-07T07:23:42;15.30;99.90
52879;DHT22;38747;53.140;6.498;2023-08-07T07:26:08;15.30;99.90
52879;DHT22;38747;53.140;6.498;2023-08-07T07:28:33;15.30;99.90
52879;DHT22;38747;53.140;6.498;2023-08-07T07:30:59;15.20;99.90
52879;DHT22;38747;53.140;6.498;2023-08-07T07:33:24;15.10;99.90
52879;DHT22;38747;53.140;6.498;2023-08-07T07:35:51;14.90;99.90
52879;DHT22;38747;53.140;6.498;2023-08-07T07:38:16;14.80;99.90
52879;DHT22;38747;53.140;6.498;2023-08-07T07:40:42;14.70;99.90
52879;DHT22;38747;53.140;6.498;2023-08-07T07:43:07;14.60;99.90
52879;DHT22;38747;53.140;6.498;2023-08-07T07:45:33;14.70;99.90
52879;DHT22;38747;53.140;6.498;2023-08-07T07:48:01;14.70;99.90
52879;DHT22;38747;53.140;6.498;2023-08-07T07:50:27;14.80;99.90
52879;DHT22;38747;53.140;6.498;2023-08-07T07:52:53;14.90;99.90
52879;DHT22;38747;53.140;6.498;2023-08-07T07:55:18;15.00;99.90
52879;DHT22;38747;53.140;6.498;2023-08-07T07:57:44;15.10;99.90
52879;DHT22;38747;53.140;6.498;2023-08-07T08:00:10;15.10;99.90
52879;DHT22;38747;53.140;6.498;2023-08-07T08:02:37;15.10;99.90
52879;DHT22;38747;53.140;6.498;2023-08-07T08:05:03;15.00;99.90
52879;DHT22;38747;53.140;6.498;2023-08-07T08:07:28;14.80;99.90
52879;DHT22;38747;53.140;6.498;2023-08-07T08:09:54;14.70;99.90
52879;DHT22;38747;53.140;6.498;2023-08-07T08:12:22;14.60;99.90
52879;DHT22;38747;53.140;6.498;2023-08-07T08:14:47;14.60;99.90
52879;DHT22;38747;53.140;6.498;2023-08-07T08:17:13;14.50;99.90
52879;DHT22;38747;53.140;6.498;2023-08-07T08:19:39;14.50;99.90
52879;DHT22;38747;53.140;6.498;2023-08-07T08:22:05;14.50;99.90
52879;DHT22;38747;53.140;6.498;2023-08-07T08:24:31;14.50;99.90
52879;DHT22;38747;53.140;6.498;2023-08-07T08:26:57;14.60;99.90
52879;DHT22;38747;53.140;6.498;2023-08-07T08:29:23;14.60;99.90
52879;DHT22;38747;53.140;6.498;2023-08-07T08:31:48;14.70;99.90
52879;DHT22;38747;53.140;6.498;2023-08-07T08:34:14;14.80;99.90
52879;DHT22;38747;53.140;6.498;2023-08-07T08:36:40;14.90;99.90
52879;DHT22;38747;53.140;6.498;2023-08-07T08:39:05;14.80;99.90
52879;DHT22;38747;53.140;6.498;2023-08-07T08:41:31;14.90;99.90
52879;DHT22;38747;53.140;6.498;2023-08-07T08:43:57;14.90;99.90
52879;DHT22;38747;53.140;6.498;2023-08-07T08:46:27;15.00;99.90
52879;DHT22;38747;53.140;6.498;2023-08-07T08:48:56;15.10;99.90
52879;DHT22;38747;53.140;6.498;2023-08-07T08:51:24;15.20;99.90
52879;DHT22;38747;53.140;6.498;2023-08-07T08:53:53;15.30;99.90
52879;DHT22;38747;53.140;6.498;2023-08-07T08:56:22;15.50;99.90
52879;DHT22;38747;53.140;6.498;2023-08-07T08:58:50;15.60;99.90
52879;DHT22;38747;53.140;6.498;2023-08-07T09:01:18;15.70;99.90
52879;DHT22;38747;53.140;6.498;2023-08-07T09:03:47;15.70;99.90
52879;DHT22;38747;53.140;6.498;2023-08-07T09:06:13;15.80;99.90
52879;DHT22;38747;53.140;6.498;2023-08-07T09:08:43;15.90;99.90
52879;DHT22;38747;53.140;6.498;2023-08-07T09:11:10;16.00;99.90
52879;DHT22;38747;53.140;6.498;2023-08-07T09:13:40;16.00;99.90
52879;DHT22;38747;53.140;6.498;2023-08-07T09:16:08;16.00;99.90
52879;DHT22;38747;53.140;6.498;2023-08-07T09:18:36;16.10;99.90
52879;DHT22;38747;53.140;6.498;2023-08-07T09:21:03;16.30;99.90
52879;DHT22;38747;53.140;6.498;2023-08-07T09:23:28;16.50;99.90
52879;DHT22;38747;53.140;6.498;2023-08-07T09:26:01;16.50;99.90
52879;DHT22;38747;53.140;6.498;2023-08-07T09:28:28;16.70;99.90
52879;DHT22;38747;53.140;6.498;2023-08-07T09:30:55;16.90;99.90
52879;DHT22;38747;53.140;6.498;2023-08-07T09:33:29;17.00;99.90
52879;DHT22;38747;53.140;6.498;2023-08-07T09:36:01;17.10;99.90
52879;DHT22;38747;53.140;6.498;2023-08-07T09:38:28;17.30;99.90
52879;DHT22;38747;53.140;6.498;2023-08-07T09:40:57;17.20;99.90
52879;DHT22;38747;53.140;6.498;2023-08-07T09:43:23;17.10;99.90
52879;DHT22;38747;53.140;6.498;2023-08-07T09:45:49;17.00;99.90
52879;DHT22;38747;53.140;6.498;2023-08-07T09:48:23;17.10;99.90
52879;DHT22;38747;53.140;6.498;2023-08-07T09:50:50;17.30;99.90
52879;DHT22;38747;53.140;6.498;2023-08-07T09:53:16;17.50;99.90
52879;DHT22;38747;53.140;6.498;2023-08-07T09:55:42;17.80;99.90
52879;DHT22;38747;53.140;6.498;2023-08-07T09:58:08;17.90;99.90
52879;DHT22;38747;53.140;6.498;2023-08-07T10:00:37;17.80;99.90
52879;DHT22;38747;53.140;6.498;2023-08-07T10:03:03;17.60;99.90
52879;DHT22;38747;53.140;6.498;2023-08-07T10:05:30;17.50;99.90
52879;DHT22;38747;53.140;6.498;2023-08-07T10:07:57;17.30;99.90
52879;DHT22;38747;53.140;6.498;2023-08-07T10:10:24;17.20;99.90
52879;DHT22;38747;53.140;6.498;2023-08-07T10:12:52;17.10;99.90
52879;DHT22;38747;53.140;6.498;2023-08-07T10:15:18;17.00;99.90
52879;DHT22;38747;53.140;6.498;2023-08-07T10:17:44;17.00;99.90
52879;DHT22;38747;53.140;6.498;2023-08-07T10:20:11;17.00;99.90
52879;DHT22;38747;53.140;6.498;2023-08-07T10:22:38;17.00;99.90
52879;DHT22;38747;53.140;6.498;2023-08-07T10:25:06;17.10;99.90
52879;DHT22;38747;53.140;6.498;2023-08-07T10:27:36;17.30;99.90
52879;DHT22;38747;53.140;6.498;2023-08-07T10:30:06;17.40;99.90
52879;DHT22;38747;53.140;6.498;2023-08-07T10:32:33;17.30;99.90
52879;DHT22;38747;53.140;6.498;2023-08-07T10:35:03;17.10;99.90
52879;DHT22;38747;53.140;6.498;2023-08-07T10:37:41;17.20;99.90
52879;DHT22;38747;53.140;6.498;2023-08-07T10:40:09;17.20;99.90
52879;DHT22;38747;53.140;6.498;2023-08-07T10:43:01;17.20;99.90
52879;DHT22;38747;53.140;6.498;2023-08-07T10:45:36;17.40;99.90
52879;DHT22;38747;53.140;6.498;2023-08-07T10:48:05;17.70;99.90
52879;DHT22;38747;53.140;6.498;2023-08-07T10:50:32;17.90;99.90
52879;DHT22;38747;53.140;6.498;2023-08-07T10:53:02;17.70;99.90
52879;DHT22;38747;53.140;6.498;2023-08-07T10:55:47;17.80;99.90
52879;DHT22;38747;53.140;6.498;2023-08-07T10:58:35;17.90;99.90
52879;DHT22;38747;53.140;6.498;2023-08-07T11:04:14;18.20;99.90
52879;DHT22;38747;53.140;6.498;2023-08-07T11:06:41;18.50;99.90
52879;DHT22;38747;53.140;6.498;2023-08-07T11:09:08;18.40;99.90
52879;DHT22;38747;53.140;6.498;2023-08-07T11:11:41;18.30;99.90
52879;DHT22;38747;53.140;6.498;2023-08-07T11:14:11;18.20;99.90
52879;DHT22;38747;53.140;6.498;2023-08-07T11:16:38;18.30;99.90
52879;DHT22;38747;53.140;6.498;2023-08-07T11:19:04;18.30;99.90
52879;DHT22;38747;53.140;6.498;2023-08-07T11:21:33;18.20;99.90
52879;DHT22;38747;53.140;6.498;2023-08-07T11:24:00;17.90;99.90
52879;DHT22;38747;53.140;6.498;2023-08-07T11:26:25;17.80;99.90
52879;DHT22;38747;53.140;6.498;2023-08-07T11:28:54;17.70;99.90
52879;DHT22;38747;53.140;6.498;2023-08-07T11:31:20;17.80;99.90
52879;DHT22;38747;53.140;6.498;2023-08-07T11:33:46;17.70;99.90
52879;DHT22;38747;53.140;6.498;2023-08-07T11:36:14;17.70;99.90
52879;DHT22;38747;53.140;6.498;2023-08-07T11:38:41;17.70;99.90
52879;DHT22;38747;53.140;6.498;2023-08-07T11:41:11;17.90;99.90
52879;DHT22;38747;53.140;6.498;2023-08-07T11:43:37;17.90;99.90
52879;DHT22;38747;53.140;6.498;2023-08-07T11:46:09;17.80;99.90
52879;DHT22;38747;53.140;6.498;2023-08-07T11:48:37;17.70;99.90
52879;DHT22;38747;53.140;6.498;2023-08-07T11:51:04;17.60;99.90
52879;DHT22;38747;53.140;6.498;2023-08-07T11:53:34;17.50;99.90
52879;DHT22;38747;53.140;6.498;2023-08-07T11:56:08;17.40;99.90
52879;DHT22;38747;53.140;6.498;2023-08-07T11:58:48;17.30;99.90
52879;DHT22;38747;53.140;6.498;2023-08-07T12:01:21;17.10;99.90
52879;DHT22;38747;53.140;6.498;2023-08-07T12:04:10;16.70;99.90
52879;DHT22;38747;53.140;6.498;2023-08-07T12:06:37;16.40;99.90
52879;DHT22;38747;53.140;6.498;2023-08-07T12:09:07;16.30;99.90
52879;DHT22;38747;53.140;6.498;2023-08-07T12:11:38;16.20;99.90
52879;DHT22;38747;53.140;6.498;2023-08-07T12:14:04;15.90;99.90
52879;DHT22;38747;53.140;6.498;2023-08-07T12:16:34;15.80;99.90
52879;DHT22;38747;53.140;6.498;2023-08-07T12:19:00;15.50;99.90
52879;DHT22;38747;53.140;6.498;2023-08-07T12:21:26;15.00;99.90
52879;DHT22;38747;53.140;6.498;2023-08-07T12:23:56;14.70;99.90
52879;DHT22;38747;53.140;6.498;2023-08-07T12:26:22;14.60;99.90
52879;DHT22;38747;53.140;6.498;2023-08-07T12:28:47;14.50;99.90
52879;DHT22;38747;53.140;6.498;2023-08-07T12:31:13;14.70;99.90
52879;DHT22;38747;53.140;6.498;2023-08-07T12:33:39;14.90;99.90
52879;DHT22;38747;53.140;6.498;2023-08-07T12:36:04;15.20;99.90
52879;DHT22;38747;53.140;6.498;2023-08-07T12:38:31;15.60;99.90
52879;DHT22;38747;53.140;6.498;2023-08-07T12:40:57;16.10;99.90
52879;DHT22;38747;53.140;6.498;2023-08-07T12:43:23;16.50;99.90
52879;DHT22;38747;53.140;6.498;2023-08-07T12:45:48;16.90;99.90
52879;DHT22;38747;53.140;6.498;2023-08-07T12:48:14;17.20;99.90
52879;DHT22;38747;53.140;6.498;2023-08-07T12:50:40;17.40;99.90
52879;DHT22;38747;53.140;6.498;2023-08-07T12:53:06;17.70;99.90
52879;DHT22;38747;53.140;6.498;2023-08-07T12:55:32;17.70;99.90
52879;DHT22;38747;53.140;6.498;2023-08-07T12:57:58;17.70;99.90
52879;DHT22;38747;53.140;6.498;2023-08-07T13:00:23;17.50;99.90
52879;DHT22;38747;53.140;6.498;2023-08-07T13:02:50;17.40;99.90
52879;DHT22;38747;53.140;6.498;2023-08-07T13:05:17;17.30;99.90
52879;DHT22;38747;53.140;6.498;2023-08-07T13:07:44;17.30;99.90
52879;DHT22;38747;53.140;6.498;2023-08-07T13:10:11;17.50;99.90
52879;DHT22;38747;53.140;6.498;2023-08-07T13:12:38;17.70;99.90
52879;DHT22;38747;53.140;6.498;2023-08-07T13:15:05;17.80;99.90
52879;DHT22;38747;53.140;6.498;2023-08-07T13:17:32;17.80;99.90
52879;DHT22;38747;53.140;6.498;2023-08-07T13:19:59;17.80;99.90
52879;DHT22;38747;53.140;6.498;2023-08-07T13:22:25;17.70;99.90
52879;DHT22;38747;53.140;6.498;2023-08-07T13:24:50;17.50;99.90
52879;DHT22;38747;53.140;6.498;2023-08-07T13:27:16;17.40;99.90
52879;DHT22;38747;53.140;6.498;2023-08-07T13:29:41;17.30;99.90
52879;DHT22;38747;53.140;6.498;2023-08-07T13:32:07;17.20;99.90
52879;DHT22;38747;53.140;6.498;2023-08-07T13:34:36;17.00;99.90
52879;DHT22;38747;53.140;6.498;2023-08-07T13:37:04;17.00;99.90
52879;DHT22;38747;53.140;6.498;2023-08-07T13:39:29;17.10;99.90
52879;DHT22;38747;53.140;6.498;2023-08-07T13:41:55;17.20;99.90
52879;DHT22;38747;53.140;6.498;2023-08-07T13:44:21;17.50;99.90
52879;DHT22;38747;53.140;6.498;2023-08-07T13:46:48;17.50;99.90
52879;DHT22;38747;53.140;6.498;2023-08-07T13:49:14;17.60;99.90
52879;DHT22;38747;53.140;6.498;2023-08-07T13:51:41;17.60;99.90
52879;DHT22;38747;53.140;6.498;2023-08-07T13:54:07;17.70;99.90
52879;DHT22;38747;53.140;6.498;2023-08-07T13:56:33;17.60;99.90
52879;DHT22;38747;53.140;6.498;2023-08-07T13:58:59;17.90;99.90
52879;DHT22;38747;53.140;6.498;2023-08-07T14:01:26;18.20;99.90
52879;DHT22;38747;53.140;6.498;2023-08-07T14:03:51;18.50;99.90
52879;DHT22;38747;53.140;6.498;2023-08-07T14:06:17;18.60;99.90
52879;DHT22;38747;53.140;6.498;2023-08-07T14:08:43;18.40;99.90
52879;DHT22;38747;53.140;6.498;2023-08-07T14:11:08;18.40;99.90
52879;DHT22;38747;53.140;6.498;2023-08-07T14:13:34;18.40;99.90
52879;DHT22;38747;53.140;6.498;2023-08-07T14:16:00;18.30;99.90
52879;DHT22;38747;53.140;6.498;2023-08-07T14:18:25;18.20;99.90
52879;DHT22;38747;53.140;6.498;2023-08-07T14:20:52;18.10;99.90
52879;DHT22;38747;53.140;6.498;2023-08-07T14:23:17;17.90;99.90
52879;DHT22;38747;53.140;6.498;2023-08-07T14:25:44;17.70;99.90
52879;DHT22;38747;53.140;6.498;2023-08-07T14:28:10;17.60;99.90
52879;DHT22;38747;53.140;6.498;2023-08-07T14:30:36;17.70;99.90
52879;DHT22;38747;53.140;6.498;2023-08-07T14:33:01;17.90;99.90
52879;DHT22;38747;53.140;6.498;2023-08-07T14:35:27;17.90;99.90
52879;DHT22;38747;53.140;6.498;2023-08-07T14:37:53;17.80;99.90
52879;DHT22;38747;53.140;6.498;2023-08-07T14:40:18;17.70;99.90
52879;DHT22;38747;53.140;6.498;2023-08-07T14:42:44;17.60;99.90
52879;DHT22;38747;53.140;6.498;2023-08-07T14:45:10;17.50;99.90
52879;DHT22;38747;53.140;6.498;2023-08-07T14:47:36;17.50;99.90
52879;DHT22;38747;53.140;6.498;2023-08-07T14:50:02;17.70;99.90
52879;DHT22;38747;53.140;6.498;2023-08-07T14:52:28;17.70;99.90
52879;DHT22;38747;53.140;6.498;2023-08-07T14:54:53;17.70;99.90
52879;DHT22;38747;53.140;6.498;2023-08-07T14:57:23;17.70;99.90
52879;DHT22;38747;53.140;6.498;2023-08-07T14:59:48;17.60;99.90
52879;DHT22;38747;53.140;6.498;2023-08-07T15:02:14;17.50;99.90
52879;DHT22;38747;53.140;6.498;2023-08-07T15:04:40;17.50;99.90
52879;DHT22;38747;53.140;6.498;2023-08-07T15:07:06;17.40;99.90
52879;DHT22;38747;53.140;6.498;2023-08-07T15:09:31;17.40;99.90
52879;DHT22;38747;53.140;6.498;2023-08-07T15:11:57;17.30;99.90
52879;DHT22;38747;53.140;6.498;2023-08-07T15:14:23;17.30;99.90
52879;DHT22;38747;53.140;6.498;2023-08-07T15:16:48;17.30;99.90
52879;DHT22;38747;53.140;6.498;2023-08-07T15:19:14;17.20;99.90
52879;DHT22;38747;53.140;6.498;2023-08-07T15:21:39;17.20;99.90
52879;DHT22;38747;53.140;6.498;2023-08-07T15:24:05;17.30;99.90
52879;DHT22;38747;53.140;6.498;2023-08-07T15:26:31;17.30;99.90
52879;DHT22;38747;53.140;6.498;2023-08-07T15:28:57;17.40;99.90
52879;DHT22;38747;53.140;6.498;2023-08-07T15:31:22;17.30;99.90
52879;DHT22;38747;53.140;6.498;2023-08-07T15:33:48;17.40;99.90